createdAt,value
2018-07-05T00:02:35.845Z,7.55
2018-07-05T00:05:15.642Z,8.65
2018-07-05T00:07:55.449Z,8.30
2018-07-05T00:10:35.241Z,9.38
2018-07-05T00:13:14.824Z,8.13
2018-07-05T00:15:54.446Z,8.60
2018-07-05T00:18:34.029Z,7.90
2018-07-05T00:21:13.680Z,8.38
2018-07-05T00:23:53.336Z,8.83
2018-07-05T00:26:32.965Z,9.28
2018-07-05T00:29:12.669Z,9.88
2018-07-05T00:31:52.420Z,9.15
2018-07-05T00:34:32.208Z,10.23
2018-07-05T00:37:11.802Z,8.73
2018-07-05T00:39:51.388Z,9.80
2018-07-05T00:42:31.120Z,10.00
2018-07-05T00:45:10.600Z,10.82
2018-07-05T00:47:50.348Z,9.20
2018-07-05T00:50:23.884Z,8.93
2018-07-05T00:53:03.377Z,10.93
2018-07-05T00:55:43.064Z,10.20
2018-07-05T00:58:23.858Z,9.70
2018-07-05T01:01:03.583Z,8.23
2018-07-05T01:03:43.316Z,10.50
2018-07-05T01:06:22.965Z,9.10
2018-07-05T01:09:02.693Z,10.18
2018-07-05T01:11:42.371Z,10.25
2018-07-05T01:14:21.914Z,10.28
2018-07-05T01:17:01.512Z,10.40
2018-07-05T01:19:41.245Z,10.80
2018-07-05T01:22:20.980Z,10.60
2018-07-05T01:25:00.660Z,9.90
2018-07-05T01:27:40.351Z,9.30
2018-07-05T01:30:20.144Z,9.43
2018-07-05T01:32:59.670Z,11.00
2018-07-05T01:35:39.305Z,10.80
2018-07-05T01:38:18.919Z,10.35
2018-07-05T01:40:58.553Z,12.18
2018-07-05T01:43:38.252Z,12.00
2018-07-05T01:46:17.839Z,11.12
2018-07-05T01:48:57.428Z,10.08
2018-07-05T01:51:37.164Z,10.70
2018-07-05T01:54:16.928Z,10.60
2018-07-05T01:56:56.581Z,9.58
2018-07-05T01:59:36.225Z,10.15
2018-07-05T02:02:09.816Z,9.38
2018-07-05T02:04:49.404Z,10.63
2018-07-05T02:07:28.896Z,10.08
2018-07-05T02:10:08.436Z,9.88
2018-07-05T02:12:48.081Z,9.68
2018-07-05T02:15:27.520Z,10.82
2018-07-05T02:18:07.162Z,10.85
2018-07-05T02:20:46.706Z,9.13
2018-07-05T02:23:26.245Z,10.55
2018-07-05T02:26:05.681Z,10.55
2018-07-05T02:28:45.377Z,9.00
2018-07-05T02:31:25.121Z,9.58
2018-07-05T02:34:09.757Z,9.28
2018-07-05T02:36:49.445Z,9.80
2018-07-05T02:39:34.668Z,10.15
2018-07-05T02:42:15.348Z,9.80
2018-07-05T02:44:55.383Z,10.13
2018-07-05T02:47:34.997Z,9.38
2018-07-05T02:50:14.845Z,9.55
2018-07-05T02:52:54.477Z,9.15
2018-07-05T02:55:34.112Z,9.65
2018-07-05T02:58:13.755Z,9.48
2018-07-05T03:00:53.336Z,8.53
2018-07-05T03:03:33.014Z,8.30
2018-07-05T03:06:12.554Z,9.73
2018-07-05T03:08:52.144Z,8.58
2018-07-05T03:11:31.735Z,8.68
2018-07-05T03:14:11.357Z,8.75
2018-07-05T03:16:50.826Z,9.30
2018-07-05T03:19:30.369Z,8.25
2018-07-05T03:22:10.046Z,9.40
2018-07-05T03:24:49.775Z,8.60
2018-07-05T03:27:29.356Z,9.63
2018-07-05T03:30:09.001Z,10.15
2018-07-05T03:32:48.522Z,9.43
2018-07-05T03:35:27.985Z,10.55
2018-07-05T03:38:07.626Z,9.38
2018-07-05T03:40:47.315Z,9.00
2018-07-05T03:43:26.956Z,10.03
2018-07-05T03:46:00.405Z,10.15
2018-07-05T03:48:39.889Z,10.65
2018-07-05T03:51:19.485Z,10.15
2018-07-05T03:53:59.097Z,10.15
2018-07-05T03:56:38.828Z,9.85
2018-07-05T03:59:18.553Z,10.58
2018-07-05T04:01:58.084Z,10.82
2018-07-05T04:04:37.689Z,10.98
2018-07-05T04:07:17.273Z,11.50
2018-07-05T04:09:57.044Z,11.70
2018-07-05T04:12:36.565Z,11.05
2018-07-05T04:15:16.137Z,11.15
2018-07-05T04:17:55.841Z,11.93
2018-07-05T04:20:35.588Z,12.95
2018-07-05T04:23:15.168Z,12.80
2018-07-05T04:25:54.892Z,12.40
2018-07-05T04:28:34.429Z,12.03
2018-07-05T04:31:14.217Z,8.35
2018-07-05T04:33:53.881Z,5.50
2018-07-05T04:36:33.543Z,7.35
2018-07-05T04:39:13.253Z,8.83
2018-07-05T04:41:53.149Z,6.87
2018-07-05T04:44:33.000Z,6.75
2018-07-05T04:47:12.547Z,8.98
2018-07-05T04:49:52.242Z,8.35
2018-07-05T04:52:31.746Z,8.00
2018-07-05T04:55:11.466Z,7.72
2018-07-05T04:57:51.008Z,9.25
2018-07-05T05:00:30.809Z,8.15
2018-07-05T05:03:10.340Z,8.08
2018-07-05T05:05:49.777Z,7.33
2018-07-05T05:08:29.492Z,7.67
2018-07-05T05:11:09.288Z,7.65
2018-07-05T05:13:48.801Z,7.00
2018-07-05T05:16:28.345Z,7.40
2018-07-05T05:19:07.861Z,7.00
2018-07-05T05:21:47.458Z,8.45
2018-07-05T05:24:27.140Z,8.45
2018-07-05T05:27:06.837Z,9.65
2018-07-05T05:29:46.324Z,9.50
2018-07-05T05:32:25.964Z,9.60
2018-07-05T05:35:05.663Z,11.55
2018-07-05T05:37:45.172Z,14.47
2018-07-05T05:40:24.877Z,13.55
2018-07-05T05:43:04.455Z,12.60
2018-07-05T05:45:44.152Z,12.28
2018-07-05T05:48:23.840Z,13.53
2018-07-05T05:51:03.529Z,13.30
2018-07-05T05:53:37.131Z,12.65
2018-07-05T05:56:16.870Z,14.73
2018-07-05T05:58:56.380Z,13.58
2018-07-05T06:01:35.882Z,13.18
2018-07-05T06:04:15.665Z,13.10
2018-07-05T06:06:55.255Z,12.98
2018-07-05T06:09:34.829Z,11.70
2018-07-05T06:12:14.440Z,12.70
2018-07-05T06:14:53.932Z,11.35
2018-07-05T06:17:33.420Z,11.63
2018-07-05T06:20:12.908Z,11.33
2018-07-05T06:22:52.452Z,12.05
2018-07-05T06:25:32.127Z,11.70
2018-07-05T06:28:11.846Z,11.97
2018-07-05T06:30:51.482Z,10.90
2018-07-05T06:33:30.962Z,11.63
2018-07-05T06:36:10.613Z,11.03
2018-07-05T06:38:50.177Z,10.75
2018-07-05T06:41:29.784Z,10.32
2018-07-05T06:44:09.406Z,9.60
2018-07-05T06:46:49.796Z,9.48
2018-07-05T06:49:29.503Z,8.48
2018-07-05T06:52:09.241Z,8.33
2018-07-05T06:54:48.801Z,8.65
2018-07-05T06:57:28.537Z,7.47
2018-07-05T07:00:08.116Z,6.70
2018-07-05T07:02:47.721Z,5.65
2018-07-05T07:05:27.991Z,6.67
2018-07-05T07:08:07.609Z,6.33
2018-07-05T07:10:47.162Z,4.80
2018-07-05T07:13:26.791Z,5.40
2018-07-05T07:16:06.283Z,5.33
2018-07-05T07:18:45.919Z,4.85
2018-07-05T07:21:25.764Z,4.70
2018-07-05T07:24:05.329Z,4.08
2018-07-05T07:26:45.008Z,3.60
2018-07-05T07:29:24.625Z,3.40
2018-07-05T07:32:04.381Z,4.10
2018-07-05T07:34:44.125Z,3.55
2018-07-05T07:37:23.937Z,2.87
2018-07-05T07:40:03.543Z,3.30
2018-07-05T07:42:30.830Z,2.80
2018-07-05T07:44:58.092Z,2.75
2018-07-05T07:47:25.376Z,3.22
2018-07-05T07:49:52.640Z,3.70
2018-07-05T07:52:19.928Z,3.90
2018-07-05T07:54:47.193Z,3.72
2018-07-05T07:57:14.489Z,3.60
2018-07-05T07:59:41.737Z,4.60
2018-07-05T08:02:09.285Z,3.72
2018-07-05T08:04:36.550Z,4.22
2018-07-05T08:07:03.853Z,3.65
2018-07-05T08:09:31.112Z,3.72
2018-07-05T08:11:58.396Z,3.87
2018-07-05T08:14:25.653Z,3.70
2018-07-05T08:16:52.944Z,3.70
2018-07-05T08:19:20.208Z,3.47
2018-07-05T08:21:47.488Z,3.30
2018-07-05T08:24:14.754Z,3.22
2018-07-05T08:26:42.045Z,3.40
2018-07-05T08:29:09.304Z,3.20
2018-07-05T08:31:36.609Z,2.60
2018-07-05T08:34:03.866Z,3.02
2018-07-05T08:36:31.122Z,3.10
2018-07-05T08:38:58.413Z,2.67
2018-07-05T08:41:25.929Z,2.95
2018-07-05T08:43:53.240Z,2.90
2018-07-05T08:46:20.521Z,3.25
2018-07-05T08:48:47.815Z,3.67
2018-07-05T08:51:15.139Z,3.20
2018-07-05T08:53:42.389Z,3.20
2018-07-05T08:56:09.640Z,3.20
2018-07-05T08:58:36.929Z,3.65
2018-07-05T09:01:04.191Z,3.10
2018-07-05T09:03:31.480Z,3.05
2018-07-05T09:05:58.732Z,3.15
2018-07-05T09:08:26.025Z,3.02
2018-07-05T09:10:53.278Z,3.33
2018-07-05T09:13:20.608Z,2.80
2018-07-05T09:15:47.857Z,2.40
2018-07-05T09:18:15.201Z,2.42
2018-07-05T09:20:42.443Z,2.55
2018-07-05T09:23:09.778Z,2.10
2018-07-05T09:25:37.045Z,3.37
2018-07-05T09:28:04.640Z,2.67
2018-07-05T09:30:32.021Z,2.50
2018-07-05T09:32:59.325Z,2.02
2018-07-05T09:35:26.589Z,2.62
2018-07-05T09:37:53.890Z,2.30
2018-07-05T09:40:21.155Z,1.85
2018-07-05T09:42:48.447Z,2.02
2018-07-05T09:45:15.700Z,2.77
2018-07-05T09:47:42.993Z,1.92
2018-07-05T09:50:10.294Z,1.72
2018-07-05T09:52:37.592Z,2.75
2018-07-05T09:55:04.856Z,2.33
2018-07-05T09:57:32.232Z,2.92
2018-07-05T09:59:59.600Z,2.92
2018-07-05T10:02:26.856Z,2.15
2018-07-05T10:04:54.149Z,2.10
2018-07-05T10:07:21.412Z,1.72
2018-07-05T10:09:49.273Z,2.62
2018-07-05T10:12:19.954Z,2.60
2018-07-05T10:14:47.255Z,3.22
2018-07-05T10:17:14.541Z,3.80
2018-07-05T10:19:41.828Z,3.45
2018-07-05T10:22:09.096Z,3.00
2018-07-05T10:24:36.486Z,4.05
2018-07-05T10:27:03.935Z,3.58
2018-07-05T10:29:43.579Z,4.40
2018-07-05T10:32:23.037Z,4.05
2018-07-05T10:34:50.361Z,4.20
2018-07-05T10:37:23.211Z,3.70
2018-07-05T10:40:03.725Z,3.50
2018-07-05T10:42:43.372Z,3.90
2018-07-05T10:45:23.025Z,4.10
2018-07-05T10:48:02.700Z,3.77
2018-07-05T10:50:42.365Z,4.05
2018-07-05T10:53:21.944Z,3.27
2018-07-05T10:56:01.392Z,3.90
2018-07-05T10:58:41.190Z,3.72
2018-07-05T11:01:20.761Z,4.42
2018-07-05T11:04:00.485Z,3.72
2018-07-05T11:06:40.117Z,3.37
2018-07-05T11:09:20.630Z,3.50
2018-07-05T11:12:00.288Z,3.27
2018-07-05T11:14:40.067Z,3.80
2018-07-05T11:17:19.899Z,4.17
2018-07-05T11:19:59.537Z,3.20
2018-07-05T11:22:38.968Z,3.50
2018-07-05T11:25:18.575Z,3.40
2018-07-05T11:27:58.146Z,3.30
2018-07-05T11:30:37.775Z,3.45
2018-07-05T11:33:17.412Z,3.00
2018-07-05T11:35:57.064Z,3.40
2018-07-05T11:38:36.715Z,3.45
2018-07-05T11:41:16.217Z,4.75
2018-07-05T11:43:56.305Z,3.98
2018-07-05T11:46:35.997Z,3.45
2018-07-05T11:49:15.536Z,4.00
2018-07-05T11:51:55.064Z,3.75
2018-07-05T11:54:34.746Z,4.20
2018-07-05T11:57:14.317Z,4.85
2018-07-05T11:59:53.908Z,3.60
2018-07-05T12:02:33.655Z,4.50
2018-07-05T12:05:13.293Z,4.10
2018-07-05T12:07:52.968Z,4.67
2018-07-05T12:10:32.658Z,4.45
2018-07-05T12:13:12.172Z,4.58
2018-07-05T12:15:45.812Z,4.55
2018-07-05T12:18:25.336Z,4.55
2018-07-05T12:21:04.924Z,4.30
2018-07-05T12:23:44.524Z,4.92
2018-07-05T12:26:24.140Z,4.40
2018-07-05T12:29:03.937Z,4.62
2018-07-05T12:31:43.609Z,4.40
2018-07-05T12:34:23.343Z,4.15
2018-07-05T12:37:02.890Z,5.20
2018-07-05T12:39:42.625Z,5.72
2018-07-05T12:42:22.388Z,4.35
2018-07-05T12:45:01.917Z,5.75
2018-07-05T12:47:41.596Z,5.40
2018-07-05T12:50:21.109Z,5.72
2018-07-05T12:53:00.741Z,5.72
2018-07-05T12:55:40.480Z,5.28
2018-07-05T12:58:20.271Z,5.70
2018-07-05T13:01:00.008Z,4.83
2018-07-05T13:03:39.649Z,6.03
2018-07-05T13:06:19.338Z,5.20
2018-07-05T13:08:59.129Z,5.75
2018-07-05T13:11:38.724Z,6.85
2018-07-05T13:14:18.220Z,5.85
2018-07-05T13:16:57.860Z,5.25
2018-07-05T13:19:37.428Z,6.05
2018-07-05T13:22:17.037Z,6.33
2018-07-05T13:24:56.614Z,6.47
2018-07-05T13:27:36.301Z,5.60
2018-07-05T13:30:15.740Z,7.25
2018-07-05T13:32:55.400Z,6.28
2018-07-05T13:35:35.145Z,7.05
2018-07-05T13:38:14.849Z,7.05
2018-07-05T13:40:48.427Z,6.15
2018-07-05T13:43:27.888Z,7.05
2018-07-05T13:46:07.574Z,6.95
2018-07-05T13:48:47.112Z,6.42
2018-07-05T13:51:26.796Z,6.40
2018-07-05T13:54:06.394Z,6.00
2018-07-05T13:56:45.869Z,6.15
2018-07-05T13:59:25.398Z,6.70
2018-07-05T14:02:04.985Z,7.33
2018-07-05T14:04:44.557Z,7.20
2018-07-05T14:07:24.264Z,6.50
2018-07-05T14:10:03.865Z,6.47
2018-07-05T14:12:43.428Z,6.28
2018-07-05T14:15:23.172Z,5.60
2018-07-05T14:18:03.024Z,4.45
2018-07-05T14:20:42.531Z,3.50
2018-07-05T14:23:22.024Z,3.37
2018-07-05T14:26:01.633Z,4.17
2018-07-05T14:28:41.245Z,4.20
2018-07-05T14:31:21.032Z,6.15
2018-07-05T14:34:00.629Z,5.62
2018-07-05T14:36:34.208Z,5.58
2018-07-05T14:39:13.694Z,5.80
2018-07-05T14:41:53.289Z,5.40
2018-07-05T14:44:32.796Z,6.50
2018-07-05T14:47:12.469Z,6.78
2018-07-05T14:49:52.233Z,5.58
2018-07-05T14:52:25.832Z,5.30
2018-07-05T14:55:05.213Z,5.95
2018-07-05T14:57:44.976Z,6.53
2018-07-05T15:00:24.648Z,5.83
2018-07-05T15:03:04.165Z,7.00
2018-07-05T15:05:43.832Z,6.05
2018-07-05T15:08:23.492Z,5.42
2018-07-05T15:11:03.181Z,7.55
2018-07-05T15:13:42.749Z,6.28
2018-07-05T15:16:22.376Z,6.42
2018-07-05T15:19:02.031Z,5.83
2018-07-05T15:21:41.653Z,7.08
2018-07-05T15:24:21.424Z,5.55
2018-07-05T15:27:01.055Z,6.55
2018-07-05T15:29:40.640Z,6.08
2018-07-05T15:32:20.148Z,6.03
2018-07-05T15:34:59.728Z,6.55
2018-07-05T15:37:39.624Z,6.75
2018-07-05T15:40:19.204Z,5.92
2018-07-05T15:42:59.252Z,6.45
2018-07-05T15:45:38.851Z,7.42
2018-07-05T15:48:18.585Z,6.97
2018-07-05T15:50:58.125Z,6.75
2018-07-05T15:53:37.820Z,6.30
2018-07-05T15:56:17.513Z,6.25
2018-07-05T15:58:57.179Z,6.00
2018-07-05T16:01:36.864Z,5.70
2018-07-05T16:04:16.380Z,6.87
2018-07-05T16:06:56.109Z,6.45
2018-07-05T16:09:35.737Z,6.05
2018-07-05T16:12:15.404Z,5.50
2018-07-05T16:14:55.196Z,7.30
2018-07-05T16:17:34.790Z,6.70
2018-07-05T16:20:14.484Z,7.17
2018-07-05T16:22:54.101Z,6.28
2018-07-05T16:25:33.836Z,6.35
2018-07-05T16:28:13.527Z,5.95
2018-07-05T16:30:53.132Z,6.20
2018-07-05T16:33:32.853Z,6.03
2018-07-05T16:36:12.416Z,6.20
2018-07-05T16:38:51.913Z,6.58
2018-07-05T16:41:31.377Z,5.80
2018-07-05T16:44:11.085Z,6.80
2018-07-05T16:46:50.787Z,5.85
2018-07-05T16:49:30.463Z,6.22
2018-07-05T16:52:10.109Z,7.55
2018-07-05T16:54:49.868Z,6.40
2018-07-05T16:57:29.381Z,7.17
2018-07-05T17:00:09.336Z,6.47
2018-07-05T17:02:48.953Z,7.28
2018-07-05T17:05:28.656Z,8.35
2018-07-05T17:08:08.400Z,7.55
2018-07-05T17:10:48.038Z,8.40
2018-07-05T17:13:27.634Z,8.08
2018-07-05T17:16:07.219Z,8.20
2018-07-05T17:18:46.840Z,8.25
2018-07-05T17:21:26.375Z,8.35
2018-07-05T17:24:06.120Z,7.35
2018-07-05T17:26:45.867Z,7.53
2018-07-05T17:29:25.624Z,7.17
2018-07-05T17:32:05.234Z,6.37
2018-07-05T17:34:45.538Z,6.58
2018-07-05T17:37:25.157Z,6.95
2018-07-05T17:40:04.796Z,7.17
2018-07-05T17:42:44.496Z,6.53
2018-07-05T17:45:24.140Z,7.30
2018-07-05T17:48:03.920Z,5.97
2018-07-05T17:50:43.704Z,6.40
2018-07-05T17:53:23.305Z,7.12
2018-07-05T17:56:02.845Z,6.47
2018-07-05T17:58:42.364Z,7.72
2018-07-05T18:01:22.056Z,5.62
2018-07-05T18:04:01.674Z,7.15
2018-07-05T18:06:41.204Z,5.60
2018-07-05T18:09:20.853Z,5.75
2018-07-05T18:12:00.325Z,5.80
2018-07-05T18:14:39.876Z,8.45
2018-07-05T18:17:19.477Z,5.90
2018-07-05T18:19:59.104Z,4.90
2018-07-05T18:22:38.635Z,5.25
2018-07-05T18:25:18.225Z,4.58
2018-07-05T18:27:58.104Z,4.00
2018-07-05T18:30:37.681Z,5.25
2018-07-05T18:33:11.300Z,3.98
2018-07-05T18:35:50.944Z,4.05
2018-07-05T18:38:30.348Z,4.05
2018-07-05T18:41:10.200Z,3.55
2018-07-05T18:43:49.877Z,4.28
2018-07-05T18:46:29.456Z,4.47
2018-07-05T18:49:09.224Z,4.25
2018-07-05T18:51:48.860Z,5.10
2018-07-05T18:54:28.530Z,5.30
2018-07-05T18:57:08.065Z,5.65
2018-07-05T18:59:47.533Z,5.30
2018-07-05T19:02:26.924Z,6.80
2018-07-05T19:05:06.549Z,5.42
2018-07-05T19:07:46.416Z,6.60
2018-07-05T19:10:26.164Z,6.08
2018-07-05T19:13:05.816Z,7.40
2018-07-05T19:15:45.534Z,6.45
2018-07-05T19:18:25.073Z,5.20
2018-07-05T19:21:04.646Z,5.80
2018-07-05T19:23:44.584Z,5.72
2018-07-05T19:26:24.232Z,5.37
2018-07-05T19:29:03.892Z,6.08
2018-07-05T19:31:43.574Z,6.30
2018-07-05T19:34:23.155Z,6.50
2018-07-05T19:37:02.556Z,6.60
2018-07-05T19:39:42.949Z,9.15
2018-07-05T19:42:22.646Z,10.85
2018-07-05T19:45:02.282Z,7.30
2018-07-05T19:47:41.993Z,6.50
2018-07-05T19:50:21.677Z,6.30
2018-07-05T19:53:01.501Z,6.12
2018-07-05T19:55:41.101Z,7.30
2018-07-05T19:58:20.689Z,7.15
2018-07-05T20:01:00.445Z,5.20
2018-07-05T20:03:40.220Z,5.28
2018-07-05T20:06:19.821Z,5.62
2018-07-05T20:08:59.349Z,5.03
2018-07-05T20:11:43.369Z,5.20
2018-07-05T20:14:23.133Z,5.00
2018-07-05T20:17:02.861Z,9.03
2018-07-05T20:19:42.402Z,6.80
2018-07-05T20:22:21.891Z,5.00
2018-07-05T20:25:01.468Z,5.70
2018-07-05T20:27:41.048Z,4.80
2018-07-05T20:30:20.904Z,5.80
2018-07-05T20:33:00.345Z,5.00
2018-07-05T20:35:40.104Z,5.00
2018-07-05T20:38:19.873Z,5.65
2018-07-05T20:40:59.384Z,5.47
2018-07-05T20:43:38.995Z,5.28
2018-07-05T20:46:18.352Z,6.15
2018-07-05T20:48:57.961Z,5.80
2018-07-05T20:51:37.658Z,5.90
2018-07-05T20:54:17.284Z,5.75
2018-07-05T20:56:56.825Z,5.75
2018-07-05T20:59:36.443Z,5.28
2018-07-05T21:02:15.888Z,6.55
2018-07-05T21:04:55.489Z,5.50
2018-07-05T21:07:35.152Z,5.47
2018-07-05T21:10:14.638Z,6.45
2018-07-05T21:12:54.279Z,6.08
2018-07-05T21:15:34.164Z,5.40
2018-07-05T21:18:13.842Z,5.80
2018-07-05T21:20:53.465Z,6.08
2018-07-05T21:23:33.244Z,5.95
2018-07-05T21:26:12.945Z,5.65
2018-07-05T21:28:52.753Z,6.22
2018-07-05T21:31:32.346Z,7.28
2018-07-05T21:34:12.019Z,7.05
2018-07-05T21:36:51.750Z,7.50
2018-07-05T21:39:31.613Z,7.05
2018-07-05T21:42:11.129Z,7.85
2018-07-05T21:44:50.852Z,7.20
2018-07-05T21:47:30.600Z,7.65
2018-07-05T21:50:10.288Z,7.72
2018-07-05T21:52:49.939Z,7.95
2018-07-05T21:55:29.604Z,7.25
2018-07-05T21:58:09.358Z,7.10
2018-07-05T22:00:48.851Z,7.12
2018-07-05T22:03:28.677Z,7.08
2018-07-05T22:06:08.253Z,6.97
2018-07-05T22:08:47.789Z,7.72
2018-07-05T22:11:27.407Z,6.60
2018-07-05T22:14:06.961Z,6.92
2018-07-05T22:16:52.107Z,7.87
2018-07-05T22:19:37.240Z,7.65
2018-07-05T22:22:22.293Z,7.47
2018-07-05T22:25:07.476Z,8.18
2018-07-05T22:27:52.696Z,7.75
2018-07-05T22:30:37.809Z,6.90
2018-07-05T22:33:17.620Z,8.35
2018-07-05T22:35:57.184Z,8.03
2018-07-05T22:38:36.880Z,8.58
2018-07-05T22:41:16.672Z,6.92
2018-07-05T22:43:56.252Z,7.58
2018-07-05T22:46:36.005Z,6.22
2018-07-05T22:49:15.621Z,6.37
2018-07-05T22:51:55.316Z,5.97
2018-07-05T22:54:29.021Z,6.33
2018-07-05T22:57:08.596Z,5.72
2018-07-05T22:59:48.300Z,6.35
2018-07-05T23:02:27.761Z,6.45
2018-07-05T23:05:07.395Z,5.45
2018-07-05T23:07:47.002Z,6.50
2018-07-05T23:10:26.632Z,6.00
2018-07-05T23:13:06.282Z,5.62
2018-07-05T23:15:45.981Z,5.67
2018-07-05T23:18:25.673Z,6.30
2018-07-05T23:21:05.437Z,7.30
2018-07-05T23:23:45.031Z,7.40
2018-07-05T23:26:24.709Z,6.78
2018-07-05T23:29:04.377Z,6.22
2018-07-05T23:31:44.132Z,6.83
2018-07-05T23:34:23.629Z,7.22
2018-07-05T23:37:03.115Z,6.78
2018-07-05T23:39:42.857Z,6.62
2018-07-05T23:42:22.487Z,6.35
2018-07-05T23:45:02.133Z,6.20
2018-07-05T23:47:41.824Z,6.72
2018-07-05T23:50:21.549Z,6.47
2018-07-05T23:53:01.113Z,6.97
2018-07-05T23:55:40.976Z,7.35
2018-07-05T23:58:20.656Z,7.40
